createdAt,value
2023-01-29T00:02:11.225Z,74.94
2023-01-29T00:05:10.024Z,75.21
2023-01-29T00:08:05.594Z,74.99
2023-01-29T00:10:54.093Z,75.17
2023-01-29T00:13:42.627Z,76.04
2023-01-29T00:16:32.574Z,76.63
2023-01-29T00:19:21.092Z,76.70
2023-01-29T00:22:10.419Z,76.52
2023-01-29T00:24:59.187Z,76.83
2023-01-29T00:27:47.624Z,76.25
2023-01-29T00:30:36.986Z,76.46
2023-01-29T00:33:26.791Z,76.82
2023-01-29T00:36:17.063Z,76.48
2023-01-29T00:39:10.611Z,75.21
2023-01-29T00:42:16.816Z,74.38
2023-01-29T00:45:06.166Z,74.63
2023-01-29T00:47:54.606Z,74.31
2023-01-29T00:50:44.544Z,74.41
2023-01-29T00:53:32.960Z,74.66
2023-01-29T00:56:21.390Z,74.88
2023-01-29T00:59:09.910Z,75.73
2023-01-29T01:02:15.787Z,76.31
2023-01-29T01:05:06.051Z,76.50
2023-01-29T01:07:57.593Z,76.58
2023-01-29T01:10:45.082Z,75.90
2023-01-29T01:13:34.340Z,75.80
2023-01-29T01:16:22.981Z,75.53
2023-01-29T01:19:11.649Z,75.24
2023-01-29T01:22:00.164Z,75.89
2023-01-29T01:24:50.400Z,75.44
2023-01-29T01:27:41.106Z,75.95
2023-01-29T01:30:29.724Z,75.65
2023-01-29T01:33:18.425Z,75.78
2023-01-29T01:36:09.804Z,76.71
2023-01-29T01:38:58.302Z,76.69
2023-01-29T01:41:48.135Z,77.09
2023-01-29T01:44:56.524Z,77.32
2023-01-29T01:47:48.432Z,77.17
2023-01-29T01:50:40.693Z,75.73
2023-01-29T01:53:32.224Z,74.25
2023-01-29T01:56:24.643Z,73.89
2023-01-29T01:59:15.943Z,74.66
2023-01-29T02:02:21.815Z,75.05
2023-01-29T02:05:29.028Z,75.67
2023-01-29T02:08:37.404Z,75.98
2023-01-29T02:11:25.858Z,75.25
2023-01-29T02:14:15.670Z,75.69
2023-01-29T02:17:04.312Z,76.00
2023-01-29T02:20:03.093Z,76.45
2023-01-29T02:23:13.810Z,78.16
2023-01-29T02:26:11.518Z,78.75
2023-01-29T02:29:22.412Z,79.42
2023-01-29T02:32:18.068Z,79.52
2023-01-29T02:35:28.526Z,79.45
2023-01-29T02:38:22.378Z,79.30
2023-01-29T02:41:14.963Z,78.99
2023-01-29T02:44:09.800Z,79.65
2023-01-29T02:47:02.107Z,79.63
2023-01-29T02:49:53.822Z,79.56
2023-01-29T02:52:49.717Z,79.30
2023-01-29T02:55:41.424Z,79.19
2023-01-29T02:58:32.382Z,79.73
2023-01-29T03:01:26.001Z,78.95
2023-01-29T03:04:19.675Z,78.79
2023-01-29T03:07:22.456Z,78.94
2023-01-29T03:10:16.914Z,79.30
2023-01-29T03:13:11.737Z,79.15
2023-01-29T03:16:03.029Z,78.80
2023-01-29T03:18:57.119Z,77.95
2023-01-29T03:21:55.348Z,77.73
2023-01-29T03:25:05.289Z,78.28
2023-01-29T03:28:14.928Z,78.96
2023-01-29T03:31:23.616Z,79.25
2023-01-29T03:34:18.131Z,79.11
2023-01-29T03:37:09.851Z,78.64
2023-01-29T03:39:58.460Z,79.14
2023-01-29T03:42:56.849Z,79.45
2023-01-29T03:45:53.649Z,80.06
2023-01-29T03:48:48.099Z,80.25
2023-01-29T03:51:39.447Z,80.31
2023-01-29T03:54:33.375Z,81.03
2023-01-29T03:57:29.853Z,81.74
2023-01-29T04:00:21.197Z,82.16
2023-01-29T04:03:15.597Z,82.61
2023-01-29T04:06:10.680Z,83.04
2023-01-29T04:09:05.032Z,82.69
2023-01-29T04:11:58.667Z,83.04
2023-01-29T04:14:48.124Z,83.57
2023-01-29T04:17:40.424Z,83.83
2023-01-29T04:20:29.194Z,84.02
2023-01-29T04:23:22.521Z,84.19
2023-01-29T04:26:24.749Z,84.63
2023-01-29T04:29:23.075Z,84.75
2023-01-29T04:32:16.415Z,85.07
2023-01-29T04:35:11.218Z,85.86
2023-01-29T04:38:08.100Z,86.31
2023-01-29T04:41:04.241Z,86.16
2023-01-29T04:44:00.801Z,86.34
2023-01-29T04:46:53.551Z,86.12
2023-01-29T04:49:46.434Z,86.33
2023-01-29T04:52:43.256Z,85.95
2023-01-29T04:55:37.514Z,86.26
2023-01-29T04:58:29.446Z,86.76
2023-01-29T05:01:20.489Z,86.41
2023-01-29T05:04:12.152Z,86.75
2023-01-29T05:07:03.326Z,86.21
2023-01-29T05:09:52.356Z,85.51
2023-01-29T05:12:41.667Z,84.95
2023-01-29T05:15:34.860Z,84.59
2023-01-29T05:18:25.039Z,85.84
2023-01-29T05:21:13.869Z,85.76
2023-01-29T05:24:10.755Z,86.31
2023-01-29T05:27:16.660Z,85.75
2023-01-29T05:30:06.074Z,86.14
2023-01-29T05:32:54.563Z,84.92
2023-01-29T05:35:44.546Z,85.22
2023-01-29T05:38:33.046Z,84.48
2023-01-29T05:41:22.101Z,83.88
2023-01-29T05:44:10.871Z,84.36
2023-01-29T05:46:59.422Z,84.64
2023-01-29T05:49:47.902Z,84.52
2023-01-29T05:52:37.739Z,84.08
2023-01-29T05:55:26.318Z,84.58
2023-01-29T05:58:15.192Z,82.76
2023-01-29T06:01:11.199Z,82.94
2023-01-29T06:03:59.703Z,83.41
2023-01-29T06:06:48.186Z,83.02
2023-01-29T06:09:38.030Z,83.46
2023-01-29T06:12:27.829Z,84.19
2023-01-29T06:15:16.589Z,84.37
2023-01-29T06:18:05.271Z,84.73
2023-01-29T06:20:53.739Z,85.51
2023-01-29T06:23:42.576Z,85.44
2023-01-29T06:26:32.449Z,85.28
2023-01-29T06:29:20.920Z,84.82
2023-01-29T06:32:09.452Z,84.42
2023-01-29T06:34:57.961Z,84.00
2023-01-29T06:37:46.482Z,84.15
2023-01-29T06:40:35.000Z,83.54
2023-01-29T06:43:25.276Z,83.37
2023-01-29T06:46:13.896Z,82.73
2023-01-29T06:49:02.399Z,83.10
2023-01-29T06:51:50.891Z,82.03
2023-01-29T06:54:39.328Z,82.42
2023-01-29T06:57:29.850Z,82.51
2023-01-29T07:00:20.468Z,82.25
2023-01-29T07:03:11.624Z,82.17
2023-01-29T07:06:00.136Z,82.44
2023-01-29T07:08:48.665Z,80.81
2023-01-29T07:11:38.023Z,79.45
2023-01-29T07:14:26.464Z,78.20
2023-01-29T07:17:16.262Z,78.21
2023-01-29T07:20:05.887Z,78.62
2023-01-29T07:22:54.374Z,78.37
2023-01-29T07:25:42.954Z,78.64
2023-01-29T07:28:31.446Z,78.40
2023-01-29T07:31:20.214Z,78.16
2023-01-29T07:34:10.165Z,77.97
2023-01-29T07:36:58.620Z,78.73
2023-01-29T07:39:47.661Z,79.98
2023-01-29T07:42:36.094Z,80.04
2023-01-29T07:45:24.596Z,79.03
2023-01-29T07:48:14.089Z,79.23
2023-01-29T07:51:03.981Z,79.00
2023-01-29T07:53:53.358Z,79.29
2023-01-29T07:56:41.826Z,78.63
2023-01-29T07:59:30.326Z,77.46
2023-01-29T08:02:19.004Z,76.78
2023-01-29T08:05:08.596Z,77.42
2023-01-29T08:08:06.530Z,76.71
2023-01-29T08:10:56.161Z,76.91
2023-01-29T08:13:45.661Z,77.08
2023-01-29T08:16:34.237Z,77.38
2023-01-29T08:19:23.430Z,77.39
2023-01-29T08:22:11.879Z,77.21
2023-01-29T08:25:08.174Z,77.23
2023-01-29T08:27:57.749Z,76.84
2023-01-29T08:30:46.255Z,76.29
2023-01-29T08:36:43.202Z,76.72
2023-01-29T08:39:33.094Z,75.73
2023-01-29T08:42:23.544Z,74.37
2023-01-29T08:45:12.833Z,73.79
2023-01-29T08:48:01.307Z,75.61
2023-01-29T08:50:49.806Z,73.96
2023-01-29T08:53:38.230Z,73.61
2023-01-29T08:56:26.816Z,71.87
2023-01-29T08:59:16.897Z,72.16
2023-01-29T09:02:05.391Z,72.11
2023-01-29T09:04:53.957Z,72.20
2023-01-29T09:07:42.693Z,72.22
2023-01-29T09:10:31.329Z,72.16
2023-01-29T09:13:19.963Z,70.79
2023-01-29T09:16:10.523Z,70.72
2023-01-29T09:18:59.029Z,71.43
2023-01-29T09:21:47.548Z,69.99
2023-01-29T09:24:35.998Z,71.62
2023-01-29T09:27:24.865Z,74.85
2023-01-29T09:30:13.973Z,73.46
2023-01-29T09:33:03.976Z,70.51
2023-01-29T09:35:52.445Z,69.22
2023-01-29T09:38:41.067Z,68.93
2023-01-29T09:41:39.823Z,69.26
2023-01-29T09:44:39.663Z,69.01
2023-01-29T09:47:28.813Z,68.48
2023-01-29T09:50:21.304Z,67.56
2023-01-29T09:53:16.949Z,68.26
2023-01-29T09:56:07.202Z,67.79
2023-01-29T09:59:00.468Z,68.29
2023-01-29T10:01:57.011Z,68.30
2023-01-29T10:04:56.985Z,67.46
2023-01-29T10:08:11.142Z,66.66
2023-01-29T10:11:08.173Z,66.28
2023-01-29T10:14:05.247Z,66.68
2023-01-29T10:17:04.196Z,67.40
2023-01-29T10:20:07.927Z,66.81
2023-01-29T10:23:17.059Z,66.33
2023-01-29T10:26:05.689Z,66.51
2023-01-29T10:28:56.591Z,66.41
2023-01-29T10:31:47.748Z,66.87
2023-01-29T10:34:39.619Z,66.71
2023-01-29T10:37:36.153Z,66.04
2023-01-29T10:40:30.285Z,66.48
2023-01-29T10:43:23.453Z,66.64
2023-01-29T10:46:19.172Z,66.33
2023-01-29T10:49:17.702Z,66.07
2023-01-29T10:52:13.016Z,65.84
2023-01-29T10:55:09.618Z,65.99
2023-01-29T10:58:06.802Z,66.23
2023-01-29T11:00:55.384Z,67.10
2023-01-29T11:03:44.091Z,67.11
2023-01-29T11:06:34.064Z,67.41
2023-01-29T11:09:29.360Z,67.55
2023-01-29T11:12:20.949Z,67.55
2023-01-29T11:15:17.928Z,67.67
2023-01-29T11:18:10.599Z,67.86
2023-01-29T11:21:03.610Z,66.70
2023-01-29T11:23:52.617Z,65.56
2023-01-29T11:26:42.505Z,65.85
2023-01-29T11:29:35.382Z,65.79
2023-01-29T11:32:31.569Z,66.05
2023-01-29T11:35:22.605Z,67.40
2023-01-29T11:38:20.817Z,65.69
2023-01-29T11:41:18.103Z,64.38
2023-01-29T11:44:19.126Z,65.08
2023-01-29T11:47:19.412Z,63.82
2023-01-29T11:50:22.051Z,63.49
2023-01-29T11:53:24.530Z,63.52
2023-01-29T11:56:21.352Z,63.07
2023-01-29T11:59:27.253Z,63.29
2023-01-29T12:02:23.778Z,63.13
2023-01-29T12:05:17.799Z,64.11
2023-01-29T12:08:16.700Z,63.32
2023-01-29T12:11:13.891Z,62.09
2023-01-29T12:14:03.632Z,62.22
2023-01-29T12:16:55.448Z,62.49
2023-01-29T12:19:46.379Z,62.51
2023-01-29T12:22:41.868Z,61.52
2023-01-29T12:25:40.355Z,61.62
2023-01-29T12:28:47.938Z,61.47
2023-01-29T12:31:41.810Z,61.66
2023-01-29T12:34:38.273Z,61.19
2023-01-29T12:37:31.820Z,61.99
2023-01-29T12:40:22.945Z,61.77
2023-01-29T12:43:17.107Z,61.07
2023-01-29T12:46:07.917Z,61.50
2023-01-29T12:48:57.736Z,60.99
2023-01-29T12:51:54.332Z,60.57
2023-01-29T12:54:45.882Z,60.84
2023-01-29T12:57:41.251Z,61.37
2023-01-29T13:00:32.906Z,62.76
2023-01-29T13:03:25.443Z,62.61
2023-01-29T13:06:17.166Z,63.26
2023-01-29T13:09:07.867Z,61.92
2023-01-29T13:12:01.547Z,62.73
2023-01-29T13:14:55.305Z,62.23
2023-01-29T13:17:45.896Z,62.19
2023-01-29T13:20:35.338Z,61.84
2023-01-29T13:23:29.679Z,61.59
2023-01-29T13:26:22.562Z,61.74
2023-01-29T13:29:22.198Z,61.75
2023-01-29T13:32:12.073Z,61.40
2023-01-29T13:35:03.923Z,61.28
2023-01-29T13:37:54.649Z,62.12
2023-01-29T13:40:50.033Z,61.25
2023-01-29T13:43:39.930Z,61.20
2023-01-29T13:46:29.846Z,61.86
2023-01-29T13:49:28.948Z,62.71
2023-01-29T13:52:24.508Z,61.55
2023-01-29T13:55:23.913Z,61.75
2023-01-29T13:58:16.957Z,63.19
2023-01-29T14:01:05.791Z,63.08
2023-01-29T14:04:04.801Z,62.49
2023-01-29T14:06:57.347Z,62.84
2023-01-29T14:10:14.362Z,62.91
2023-01-29T14:13:27.408Z,62.77
2023-01-29T14:16:36.142Z,63.77
2023-01-29T14:19:25.637Z,63.77
2023-01-29T14:22:22.728Z,63.93
2023-01-29T14:25:18.495Z,63.63
2023-01-29T14:28:15.905Z,63.35
2023-01-29T14:31:04.972Z,63.13
2023-01-29T14:33:53.880Z,63.45
2023-01-29T14:36:43.491Z,63.05
2023-01-29T14:39:36.655Z,63.50
2023-01-29T14:42:27.336Z,62.85
2023-01-29T14:45:24.676Z,63.39
2023-01-29T14:48:38.496Z,63.54
2023-01-29T14:51:28.174Z,63.54
2023-01-29T14:54:22.304Z,62.99
2023-01-29T14:57:14.440Z,62.98
2023-01-29T15:00:05.380Z,63.22
2023-01-29T15:03:01.639Z,63.95
2023-01-29T15:05:50.931Z,64.40
2023-01-29T15:08:42.786Z,64.44
2023-01-29T15:11:35.490Z,64.77
2023-01-29T15:14:31.140Z,64.22
2023-01-29T15:17:24.319Z,64.63
2023-01-29T15:20:28.145Z,64.13
2023-01-29T15:23:27.556Z,64.35
2023-01-29T15:26:20.197Z,65.15
2023-01-29T15:29:23.373Z,64.79
2023-01-29T15:32:20.122Z,64.72
2023-01-29T15:35:10.717Z,65.21
2023-01-29T15:38:00.173Z,65.23
2023-01-29T15:40:56.513Z,65.00
2023-01-29T15:43:46.732Z,66.12
2023-01-29T15:46:37.061Z,66.10
2023-01-29T15:49:31.900Z,66.47
2023-01-29T15:52:25.346Z,66.82
2023-01-29T15:55:16.106Z,67.07
2023-01-29T15:58:07.543Z,67.12
2023-01-29T16:00:58.016Z,66.68
2023-01-29T16:03:47.718Z,68.07
2023-01-29T16:06:40.288Z,67.88
2023-01-29T16:09:30.020Z,68.24
2023-01-29T16:12:18.671Z,68.40
2023-01-29T16:15:08.670Z,68.71
2023-01-29T16:17:57.440Z,69.73
2023-01-29T16:20:47.323Z,70.17
2023-01-29T16:23:41.960Z,69.84
2023-01-29T16:26:34.231Z,70.69
2023-01-29T16:29:25.037Z,70.30
2023-01-29T16:32:13.971Z,70.72
2023-01-29T16:35:02.672Z,70.80
2023-01-29T16:38:03.195Z,71.99
2023-01-29T16:41:07.657Z,72.46
2023-01-29T16:43:58.251Z,72.37
2023-01-29T16:46:47.994Z,73.21
2023-01-29T16:49:50.816Z,73.24
2023-01-29T16:52:39.369Z,72.87
2023-01-29T16:55:34.179Z,73.61
2023-01-29T16:58:28.191Z,74.01
2023-01-29T17:01:16.740Z,74.38
2023-01-29T17:04:09.910Z,75.44
2023-01-29T17:07:00.952Z,75.76
2023-01-29T17:09:51.707Z,75.99
2023-01-29T17:12:40.285Z,76.67
2023-01-29T17:15:34.516Z,77.53
2023-01-29T17:18:24.810Z,77.97
2023-01-29T17:21:13.384Z,77.99
2023-01-29T17:24:01.855Z,78.40
2023-01-29T17:26:50.454Z,79.08
2023-01-29T17:29:39.978Z,79.41
2023-01-29T17:32:43.911Z,80.08
2023-01-29T17:35:33.748Z,80.40
2023-01-29T17:38:26.243Z,80.94
2023-01-29T17:41:19.366Z,80.70
2023-01-29T17:44:07.819Z,80.92
2023-01-29T17:46:56.316Z,80.95
2023-01-29T17:49:46.351Z,82.11
2023-01-29T17:52:34.817Z,81.96
2023-01-29T17:55:23.441Z,82.34
2023-01-29T17:58:16.183Z,81.94
2023-01-29T18:01:04.885Z,82.58
2023-01-29T18:03:53.543Z,82.55
2023-01-29T18:06:44.915Z,82.41
2023-01-29T18:09:33.448Z,82.81
2023-01-29T18:12:21.900Z,82.14
2023-01-29T18:15:11.601Z,82.71
2023-01-29T18:18:00.456Z,81.54
2023-01-29T18:20:49.111Z,81.26
2023-01-29T18:23:38.944Z,80.93
2023-01-29T18:26:27.629Z,80.94
2023-01-29T18:29:16.443Z,80.65
2023-01-29T18:32:05.552Z,80.68
2023-01-29T18:34:54.639Z,80.76
2023-01-29T18:37:43.192Z,81.07
2023-01-29T18:40:33.510Z,81.14
2023-01-29T18:43:25.457Z,81.60
2023-01-29T18:46:14.903Z,82.06
2023-01-29T18:49:03.563Z,81.81
2023-01-29T18:51:52.075Z,82.40
2023-01-29T18:54:40.555Z,82.35
2023-01-29T18:58:28.591Z,83.05
2023-01-29T19:00:39.383Z,83.33
2023-01-29T19:03:27.968Z,83.72
2023-01-29T19:06:16.530Z,83.75
2023-01-29T19:09:05.301Z,83.80
2023-01-29T19:11:53.813Z,84.05
2023-01-29T19:14:43.785Z,84.75
2023-01-29T19:17:32.727Z,84.80
2023-01-29T19:20:21.388Z,85.00
2023-01-29T19:23:10.083Z,85.15
2023-01-29T19:25:58.784Z,85.24
2023-01-29T19:28:47.384Z,85.39
2023-01-29T19:31:37.348Z,85.76
2023-01-29T19:34:26.756Z,85.70
2023-01-29T19:37:15.398Z,86.28
2023-01-29T19:40:04.149Z,86.04
2023-01-29T19:42:55.013Z,86.58
2023-01-29T19:45:50.281Z,86.64
2023-01-29T19:48:40.571Z,86.92
2023-01-29T19:51:29.351Z,86.84
2023-01-29T19:54:18.272Z,87.24
2023-01-29T19:57:07.583Z,87.25
2023-01-29T19:59:56.135Z,87.58
2023-01-29T20:02:44.719Z,87.76
2023-01-29T20:05:37.427Z,88.23
2023-01-29T20:08:26.267Z,87.71
2023-01-29T20:11:15.261Z,88.21
2023-01-29T20:14:03.938Z,88.19
2023-01-29T20:16:52.448Z,88.54
2023-01-29T20:19:41.026Z,88.43
2023-01-29T20:22:31.145Z,89.06
2023-01-29T20:25:19.683Z,89.35
2023-01-29T20:28:11.591Z,89.31
2023-01-29T20:31:00.509Z,89.07
2023-01-29T20:33:49.096Z,89.62
2023-01-29T20:36:37.621Z,90.12
2023-01-29T20:39:30.779Z,90.23
2023-01-29T20:42:19.418Z,90.12
2023-01-29T20:45:08.545Z,90.25
2023-01-29T20:47:58.487Z,90.78
2023-01-29T20:50:47.088Z,90.85
2023-01-29T20:53:35.622Z,90.94
2023-01-29T20:56:38.169Z,91.33
2023-01-29T20:59:32.860Z,91.48
2023-01-29T21:02:21.385Z,91.82
2023-01-29T21:05:12.474Z,92.16
2023-01-29T21:08:00.958Z,91.98
2023-01-29T21:10:50.479Z,92.02
2023-01-29T21:13:40.498Z,92.26
2023-01-29T21:16:29.364Z,92.57
2023-01-29T21:19:18.069Z,92.66
2023-01-29T21:22:06.716Z,92.79
2023-01-29T21:24:55.202Z,92.48
2023-01-29T21:27:43.731Z,93.11
2023-01-29T21:30:33.886Z,93.89
2023-01-29T21:33:22.409Z,94.19
2023-01-29T21:36:11.288Z,94.20
2023-01-29T21:38:59.871Z,94.51
2023-01-29T21:42:08.438Z,94.58
2023-01-29T21:44:57.008Z,94.43
2023-01-29T21:47:47.027Z,94.91
2023-01-29T21:50:35.653Z,95.28
2023-01-29T21:53:24.140Z,95.14
2023-01-29T21:56:12.644Z,94.84
2023-01-29T21:59:02.339Z,94.90
2023-01-29T22:01:50.940Z,94.91
2023-01-29T22:04:40.911Z,94.89
2023-01-29T22:07:29.948Z,94.80
2023-01-29T22:10:19.925Z,94.64
2023-01-29T22:13:08.949Z,94.99
2023-01-29T22:15:57.433Z,94.90
2023-01-29T22:18:45.936Z,95.17
2023-01-29T22:21:36.065Z,95.15
2023-01-29T22:24:24.666Z,94.59
2023-01-29T22:27:13.501Z,94.31
2023-01-29T22:30:02.130Z,94.39
2023-01-29T22:32:50.755Z,93.96
2023-01-29T22:35:39.371Z,94.15
2023-01-29T22:38:29.258Z,94.28
2023-01-29T22:41:17.723Z,94.23
2023-01-29T22:44:06.370Z,94.10
2023-01-29T22:46:54.918Z,94.39
2023-01-29T22:49:45.464Z,94.26
2023-01-29T22:52:38.535Z,94.48
2023-01-29T22:55:28.464Z,94.27
2023-01-29T22:58:16.929Z,94.73
2023-01-29T23:01:05.861Z,94.41
2023-01-29T23:03:54.547Z,94.43
2023-01-29T23:06:44.123Z,94.15
2023-01-29T23:09:32.629Z,94.25
2023-01-29T23:12:22.439Z,94.18
2023-01-29T23:15:11.154Z,94.66
2023-01-29T23:17:59.606Z,95.03
2023-01-29T23:20:48.159Z,95.34
2023-01-29T23:23:37.757Z,95.54
2023-01-29T23:26:43.900Z,95.48
2023-01-29T23:29:33.742Z,95.41
2023-01-29T23:32:22.542Z,95.27
2023-01-29T23:35:11.283Z,95.74
2023-01-29T23:37:59.788Z,95.50
2023-01-29T23:40:48.673Z,95.68
2023-01-29T23:43:37.167Z,95.83
2023-01-29T23:46:27.085Z,95.71
2023-01-29T23:49:15.576Z,95.26
2023-01-29T23:52:04.252Z,94.97
2023-01-29T23:54:52.785Z,94.81
2023-01-29T23:57:41.298Z,95.13
